ORF weather

Norfolk International Airport
Norfolk, Virginia, United States

Public forecast

Using degrees Fahrenheit for public forecast. Weather courtesy of forecast.io.

METAR (pilot weather report)

Retrieved 2019/04/22 20:51 UTC (47 minutes ago):

KORF 222051Z 29008KT 10SM FEW060 FEW075 22/09 A3005 RMK AO2 SLP177 T02170094 56015

TAF (pilot weather forecast)

Retrieved 2019/04/22 18:39 UTC (3 hours ago):

TAF KORF 221736Z 2218/2318 34008KT P6SM SCT060 FM222300 30004KT P6SM SKC FM230400 22003KT P6SM SKC FM231400 26007KT P6SM SKC